Time;durP1;ratioP1;P1;durP2;ratioP2;P2;SDS_P1;SDS_P2;PMS_P1;PMS_P2;Temp;Humidity;BMP_temperature;BMP_pressure;BME280_temperature;BME280_humidity;BME280_pressure;Samples;Min_cycle;Max_cycle;Signal;HPM_P1;HPM_P2
2021/06/15 00:00:26;;;;;;;0.82;0.63;;;;;;;11.58;100.00;97397.03;5111635;28;20024;-78
2021/06/15 00:02:52;;;;;;;0.43;0.43;;;;;;;11.76;100.00;97419.91;5094420;28;20115;-79
2021/06/15 00:05:18;;;;;;;1.65;0.68;;;;;;;11.65;100.00;97404.56;5111707;28;20027;-77
2021/06/15 00:07:44;;;;;;;0.47;0.32;;;;;;;11.77;100.00;97422.50;5111319;28;20034;-78
2021/06/15 00:10:14;;;;;;;0.50;0.30;;;;;;;11.69;100.00;97413.25;5112815;27;20027;-78
2021/06/15 00:12:39;;;;;;;2.55;0.95;;;;;;;11.42;100.00;97357.91;5094202;28;20023;-78
2021/06/15 00:15:07;;;;;;;0.35;0.35;;;;;;;11.80;100.00;97421.44;5112714;28;20133;-78
2021/06/15 00:17:32;;;;;;;0.10;0.10;;;;;;;11.67;100.00;97389.22;5111118;28;20020;-78
2021/06/15 00:19:58;;;;;;;0.22;0.22;;;;;;;11.79;100.00;97408.97;5094074;28;20030;-78
2021/06/15 00:22:23;;;;;;;0.10;0.10;;;;;;;11.86;100.00;97411.16;5111324;28;20110;-78
2021/06/15 00:24:49;;;;;;;1.10;0.60;;;;;;;11.70;100.00;97399.75;5111896;28;20430;-78
2021/06/15 00:27:14;;;;;;;0.98;0.80;;;;;;;11.81;100.00;97405.22;5111032;28;20474;-79
2021/06/15 00:29:40;;;;;;;0.70;0.70;;;;;;;11.75;100.00;97380.69;5110861;28;20027;-78
2021/06/15 00:32:06;;;;;;;0.32;0.20;;;;;;;11.96;100.00;97411.38;5110844;28;20066;-78
2021/06/15 00:34:32;;;;;;;0.20;0.20;;;;;;;11.95;100.00;97410.50;5111088;28;20383;-78
2021/06/15 00:36:57;;;;;;;0.68;0.52;;;;;;;11.90;100.00;97403.75;5093681;28;20020;-78
2021/06/15 00:39:23;;;;;;;2.17;0.40;;;;;;;12.02;100.00;97413.63;5110670;28;20468;-78
2021/06/15 00:41:48;;;;;;;1.20;1.10;;;;;;;12.05;100.00;97416.09;5110708;28;20509;-79
2021/06/15 00:44:14;;;;;;;1.45;0.47;;;;;;;12.00;100.00;97404.81;5112117;28;20512;-78
2021/06/15 00:46:40;;;;;;;0.95;0.52;;;;;;;12.05;100.00;97424.13;5110712;28;20046;-78
2021/06/15 00:49:06;;;;;;;0.20;0.20;;;;;;;11.98;100.00;97400.53;5093705;28;20023;-78
2021/06/15 00:51:31;;;;;;;0.28;0.28;;;;;;;12.03;100.00;97428.72;5110826;28;20020;-78
2021/06/15 00:53:57;;;;;;;0.43;0.30;;;;;;;11.92;100.00;97425.94;5111543;28;20084;-78
2021/06/15 00:56:23;;;;;;;1.98;1.15;;;;;;;11.92;100.00;97416.09;5110949;28;20494;-78
2021/06/15 00:58:50;;;;;;;1.15;1.05;;;;;;;11.78;100.00;97385.84;5110566;28;20031;-77
2021/06/15 01:01:16;;;;;;;2.08;1.13;;;;;;;11.91;100.00;97392.03;5094004;28;20023;-78
2021/06/15 01:03:42;;;;;;;0.30;0.30;;;;;;;11.98;100.00;97403.19;5093049;28;20118;-78
2021/06/15 01:06:15;;;;;;;0.17;0.17;;;;;;;11.92;100.00;97393.78;5093464;28;20031;-78
2021/06/15 01:09:02;;;;;;;0.17;0.17;;;;;;;12.04;100.00;97408.13;5110437;28;20096;-78
2021/06/15 01:11:40;;;;;;;1.55;1.20;;;;;;;12.06;100.00;97411.59;5110549;28;20474;-78
2021/06/15 01:14:19;;;;;;;0.22;0.22;;;;;;;12.08;100.00;97399.78;5111682;28;20023;-78
2021/06/15 01:16:51;;;;;;;0.20;0.20;;;;;;;12.07;100.00;97394.50;5110231;28;20102;-77
2021/06/15 01:19:36;;;;;;;1.20;0.60;;;;;;;12.15;100.00;97405.56;5110467;28;20024;-78
2021/06/15 01:22:07;;;;;;;0.57;0.28;;;;;;;12.16;100.00;97400.09;5093126;28;20039;-78
2021/06/15 01:24:38;;;;;;;0.17;0.17;;;;;;;12.18;100.00;97397.31;5093521;28;20020;-77
2021/06/15 01:27:23;;;;;;;0.63;0.22;;;;;;;12.13;100.00;97388.72;5110314;28;20031;-78
2021/06/15 01:29:49;;;;;;;0.38;0.38;;;;;;;12.21;100.00;97394.41;5110253;28;20028;-77
2021/06/15 01:32:30;;;;;;;0.10;0.10;;;;;;;12.25;100.00;97398.56;5110431;28;20020;-78
2021/06/15 01:34:56;;;;;;;0.98;0.43;;;;;;;12.28;100.00;97399.22;5093154;28;20059;-78
2021/06/15 01:37:27;;;;;;;0.52;0.52;;;;;;;12.25;100.00;97394.06;5110341;28;20023;-78
2021/06/15 01:39:56;;;;;;;0.32;0.30;;;;;;;12.12;100.00;97385.19;5092697;28;20534;-77
2021/06/15 01:42:29;;;;;;;0.15;0.13;;;;;;;12.07;100.00;97370.38;5110322;28;20019;-78
2021/06/15 01:45:01;;;;;;;1.63;0.68;;;;;;;12.14;100.00;97387.75;5111375;28;20036;-78
2021/06/15 01:47:30;;;;;;;1.13;0.65;;;;;;;12.21;100.00;97379.16;5110368;28;20489;-78
2021/06/15 01:49:59;;;;;;;1.25;0.60;;;;;;;12.18;100.00;97374.00;5111238;28;20509;-78
2021/06/15 01:52:30;;;;;;;0.75;0.57;;;;;;;12.31;100.00;97382.03;5110061;28;20386;-79
2021/06/15 01:54:56;;;;;;;0.43;0.32;;;;;;;12.30;100.00;97377.66;5092813;28;20026;-78
2021/06/15 01:57:22;;;;;;;0.50;0.30;;;;;;;12.32;100.00;97371.22;5110118;28;20072;-78
2021/06/15 01:59:49;;;;;;;1.25;0.82;;;;;;;12.16;100.00;97370.59;5110054;28;20028;-77
2021/06/15 02:02:17;;;;;;;0.63;0.30;;;;;;;12.21;100.00;97384.53;5093217;28;20027;-78
2021/06/15 02:04:47;;;;;;;0.25;0.22;;;;;;;12.05;100.00;97367.84;5109946;28;20023;-78
2021/06/15 02:07:17;;;;;;;1.20;0.80;;;;;;;12.09;100.00;97392.59;5109855;28;20444;-78
2021/06/15 02:09:46;;;;;;;0.98;0.52;;;;;;;12.05;100.00;97383.91;5110032;28;20020;-78
2021/06/15 02:12:13;;;;;;;0.70;0.70;;;;;;;12.08;100.00;97378.34;5109694;28;20031;-78
2021/06/15 02:14:39;;;;;;;1.45;1.00;;;;;;;12.17;100.00;97377.69;5109999;28;20106;-78
2021/06/15 02:17:05;;;;;;;1.20;0.85;;;;;;;12.14;100.00;97372.53;5113401;28;20050;-78
2021/06/15 02:19:32;;;;;;;3.95;0.90;;;;;;;12.17;100.00;97361.59;5113682;28;20486;-78
2021/06/15 02:22:04;;;;;;;0.70;0.60;;;;;;;12.34;100.00;97373.78;5113714;28;20098;-78
2021/06/15 02:24:39;;;;;;;0.80;0.50;;;;;;;12.36;100.00;97375.41;5096466;28;20031;-78
2021/06/15 02:27:06;;;;;;;0.40;0.40;;;;;;;12.30;100.00;97364.25;5113334;28;20028;-78
2021/06/15 02:29:31;;;;;;;1.40;0.80;;;;;;;12.36;100.00;97378.09;5096500;28;20474;-78
2021/06/15 02:31:59;;;;;;;1.70;0.75;;;;;;;12.33;100.00;97372.09;5113095;28;20027;-78
2021/06/15 02:34:26;;;;;;;4.13;1.83;;;;;;;12.34;100.00;97374.66;5113411;28;20101;-78
2021/06/15 02:36:53;;;;;;;1.67;0.98;;;;;;;12.35;100.00;97372.81;5113454;28;20023;-78
2021/06/15 02:39:28;;;;;;;1.92;1.02;;;;;;;12.40;100.00;97384.94;5112749;28;20047;-78
2021/06/15 02:41:55;;;;;;;0.43;0.43;;;;;;;12.41;100.00;97391.16;5113313;28;20114;-78
2021/06/15 02:44:24;;;;;;;0.98;0.63;;;;;;;12.50;100.00;97406.59;5096047;28;20406;-78
2021/06/15 02:46:51;;;;;;;0.77;0.60;;;;;;;12.51;100.00;97402.94;5114187;28;20499;-78
2021/06/15 02:49:23;;;;;;;1.48;0.70;;;;;;;12.47;100.00;97396.94;5095847;28;20402;-78
2021/06/15 02:52:31;;;;;;;0.55;0.55;;;;;;;12.47;100.00;97412.19;5113220;28;20027;-78
2021/06/15 02:55:18;;;;;;;0.82;0.63;;;;;;;12.47;100.00;97431.81;5089887;27;20509;-78
2021/06/15 02:57:43;;;;;;;1.05;0.63;;;;;;;12.40;100.00;97417.13;5107186;28;20027;-78
2021/06/15 03:00:11;;;;;;;0.50;0.50;;;;;;;12.47;100.00;97429.13;5095586;28;20034;-78
2021/06/15 03:02:37;;;;;;;0.77;0.52;;;;;;;12.31;100.00;97412.41;5114269;27;20051;-75
2021/06/15 03:05:06;;;;;;;0.43;0.40;;;;;;;12.47;100.00;97439.88;5112555;28;20023;-75
2021/06/15 03:07:32;;;;;;;0.93;0.50;;;;;;;12.41;100.00;97434.94;5112532;28;20059;-75
2021/06/15 03:10:04;;;;;;;3.78;1.00;;;;;;;12.42;100.00;97442.03;5112146;28;20528;-75
2021/06/15 03:12:30;;;;;;;2.28;1.27;;;;;;;12.48;100.00;97438.91;5109610;28;20053;-75
2021/06/15 03:15:06;;;;;;;1.90;1.27;;;;;;;12.55;100.00;97449.22;5112290;28;20110;-76
2021/06/15 03:17:33;;;;;;;5.22;1.60;;;;;;;12.52;100.00;97447.56;5107645;28;20024;-76
2021/06/15 03:20:05;;;;;;;2.08;0.90;;;;;;;12.27;100.00;97420.81;5112294;28;20394;-75
2021/06/15 03:22:52;;;;;;;16.88;1.95;;;;;;;12.25;100.00;97428.06;5080987;28;20031;-77
2021/06/15 03:25:21;;;;;;;0.50;0.50;;;;;;;12.21;100.00;97443.53;5113085;28;20085;-74
2021/06/15 03:28:08;;;;;;;1.55;1.05;;;;;;;12.06;100.00;97404.38;5094393;28;20039;-74
2021/06/15 03:30:34;;;;;;;0.05;0.03;;;;;;;12.29;100.00;97440.31;5104497;28;20509;-75
2021/06/15 03:33:09;;;;;;;1.35;0.88;;;;;;;12.36;100.00;97452.34;5112029;28;20012;-75
2021/06/15 03:35:39;;;;;;;1.38;0.95;;;;;;;12.40;100.00;97445.75;5111976;28;20028;-74
2021/06/15 03:38:06;;;;;;;0.50;0.50;;;;;;;12.48;100.00;97452.31;5111424;28;20104;-74
2021/06/15 03:40:36;;;;;;;1.20;0.95;;;;;;;12.56;100.00;97461.63;5094874;28;20034;-74
2021/06/15 03:43:02;;;;;;;0.50;0.50;;;;;;;12.58;100.00;97462.41;5111233;28;20031;-75
2021/06/15 03:45:30;;;;;;;0.95;0.95;;;;;;;12.63;100.00;97465.59;5050640;28;20103;-77
2021/06/15 03:47:57;;;;;;;1.35;0.93;;;;;;;12.38;100.00;97464.66;5030410;28;20483;-76
2021/06/15 03:50:22;;;;;;;0.30;0.30;;;;;;;12.31;100.00;97457.13;5030436;28;20029;-75
2021/06/15 03:52:51;;;;;;;0.98;0.40;;;;;;;12.09;100.00;97459.63;5030783;28;20082;-73
2021/06/15 03:55:18;;;;;;;3.00;0.65;;;;;;;12.10;100.00;97478.28;5046964;28;20029;-75
2021/06/15 03:57:46;;;;;;;0.90;0.80;;;;;;;12.16;100.00;97477.00;5047578;28;20401;-75
2021/06/15 04:00:14;;;;;;;0.70;0.65;;;;;;;12.12;100.00;97465.63;5030650;28;20033;-74
2021/06/15 04:02:41;;;;;;;1.38;0.95;;;;;;;12.20;100.00;97463.28;5031961;28;20492;-75
2021/06/15 04:05:08;;;;;;;0.65;0.65;;;;;;;12.35;100.00;97472.06;5047344;28;20471;-74
2021/06/15 04:07:33;;;;;;;0.40;0.40;;;;;;;12.22;100.00;97466.69;5047258;28;20127;-77
2021/06/15 04:09:59;;;;;;;0.20;0.20;;;;;;;12.15;100.00;97468.06;5030663;28;20064;-77
2021/06/15 04:12:25;;;;;;;1.48;1.25;;;;;;;12.21;100.00;97469.50;5030733;28;20033;-77
2021/06/15 04:14:51;;;;;;;2.97;0.88;;;;;;;12.12;100.00;97468.28;5047111;28;20043;-76
2021/06/15 04:17:27;;;;;;;0.80;0.68;;;;;;;11.92;100.00;97458.97;5047067;28;20060;-77
2021/06/15 04:19:55;;;;;;;1.02;0.55;;;;;;;12.06;100.00;97471.41;5031210;28;20029;-77
2021/06/15 04:22:22;;;;;;;0.95;0.50;;;;;;;12.06;100.00;97483.97;5046821;28;20511;-78
2021/06/15 04:24:49;;;;;;;1.88;0.80;;;;;;;11.94;100.00;97472.25;5030388;28;20099;-78
2021/06/15 04:27:21;;;;;;;0.98;0.30;;;;;;;12.05;100.00;97461.66;5045925;28;20067;-77
2021/06/15 04:29:48;;;;;;;0.75;0.63;;;;;;;12.15;100.00;97473.44;5029957;28;20025;-78
2021/06/15 04:32:17;;;;;;;3.72;1.00;;;;;;;12.38;100.00;97477.22;5030419;28;20064;-77
2021/06/15 04:34:53;;;;;;;1.23;0.60;;;;;;;12.67;100.00;97492.13;5043520;28;20025;-78
2021/06/15 04:37:19;;;;;;;1.95;0.98;;;;;;;12.66;100.00;97462.69;5031129;28;20022;-74
2021/06/15 04:40:05;;;;;;;2.42;1.05;;;;;;;12.89;100.00;97484.22;5044861;28;20059;-74
2021/06/15 04:42:44;;;;;;;1.60;1.35;;;;;;;12.83;100.00;97497.22;5029389;28;20044;-77
2021/06/15 04:45:10;;;;;;;2.83;1.30;;;;;;;12.83;100.00;97497.22;5046425;28;20081;-77
2021/06/15 04:47:40;;;;;;;0.40;0.40;;;;;;;12.88;100.00;97476.31;5031058;28;20057;-77
2021/06/15 04:50:34;;;;;;;0.73;0.55;;;;;;;13.14;100.00;97509.31;5046637;28;20076;-76
2021/06/15 04:53:04;;;;;;;1.45;1.13;;;;;;;13.33;100.00;97494.44;5033532;28;20052;-76
2021/06/15 04:55:34;;;;;;;2.00;0.90;;;;;;;13.36;100.00;97514.84;5030839;28;20107;-76
2021/06/15 04:58:00;;;;;;;1.05;0.85;;;;;;;13.32;100.00;97492.72;5029576;28;20064;-76
2021/06/15 05:00:27;;;;;;;0.55;0.50;;;;;;;13.55;100.00;97515.22;5046432;28;20513;-76
2021/06/15 05:02:53;;;;;;;0.47;0.45;;;;;;;13.78;100.00;97513.50;5030571;28;20088;-76
2021/06/15 05:05:20;;;;;;;0.40;0.40;;;;;;;13.60;100.00;97513.03;5029871;28;20049;-76
2021/06/15 05:07:46;;;;;;;0.50;0.50;;;;;;;13.83;100.00;97527.44;5044181;28;20077;-76
2021/06/15 05:10:11;;;;;;;0.30;0.30;;;;;;;13.78;100.00;97521.56;5044445;28;20404;-76
2021/06/15 05:12:42;;;;;;;3.72;1.48;;;;;;;13.94;100.00;97522.09;5028635;28;20092;-77
2021/06/15 05:15:10;;;;;;;11.70;5.00;;;;;;;13.84;100.00;97496.91;5044101;28;20026;-77
2021/06/15 05:17:36;;;;;;;2.35;0.90;;;;;;;14.07;100.00;97518.38;5029011;28;20091;-77
2021/06/15 05:20:06;;;;;;;1.25;0.70;;;;;;;13.85;100.00;97515.59;5044203;28;20052;-76
2021/06/15 05:22:34;;;;;;;0.80;0.55;;;;;;;14.10;100.00;97518.16;5043889;28;20447;-76
2021/06/15 05:25:02;;;;;;;1.15;0.90;;;;;;;14.38;100.00;97510.66;5044008;28;20540;-77
2021/06/15 05:27:33;;;;;;;1.13;0.75;;;;;;;14.74;100.00;97523.94;5043919;28;20033;-76
2021/06/15 05:30:00;;;;;;;4.25;2.30;;;;;;;14.77;100.00;97520.13;5027271;28;20455;-77
2021/06/15 05:32:26;;;;;;;2.28;1.88;;;;;;;14.56;100.00;97522.69;5027513;28;20424;-76
2021/06/15 05:34:52;;;;;;;0.60;0.60;;;;;;;14.60;100.00;97526.84;5027384;28;20067;-76
2021/06/15 05:37:18;;;;;;;1.48;0.50;;;;;;;14.67;100.00;97511.94;5029211;28;20831;-76
2021/06/15 05:39:44;;;;;;;0.60;0.52;;;;;;;14.76;100.00;97526.50;5043362;28;20045;-76
2021/06/15 05:42:12;;;;;;;1.27;0.68;;;;;;;14.94;100.00;97535.81;5027025;28;20512;-77
2021/06/15 05:44:38;;;;;;;1.65;0.80;;;;;;;15.06;100.00;97545.63;5043744;28;20386;-77
2021/06/15 05:47:03;;;;;;;0.98;0.80;;;;;;;15.10;100.00;97504.00;5027647;28;20108;-76
2021/06/15 05:49:29;;;;;;;3.33;1.25;;;;;;;15.24;100.00;97529.81;5045576;28;20127;-76
2021/06/15 05:52:01;;;;;;;2.92;1.13;;;;;;;15.01;100.00;97548.66;5047584;28;20044;-76
2021/06/15 05:54:27;;;;;;;1.67;1.08;;;;;;;15.08;100.00;97524.78;5042579;28;20025;-76
2021/06/15 05:56:53;;;;;;;1.02;0.75;;;;;;;15.24;100.00;97533.34;5030997;28;20032;-77
2021/06/15 05:59:18;;;;;;;1.48;0.65;;;;;;;15.53;100.00;97523.81;5032081;28;20040;-75
2021/06/15 06:01:44;;;;;;;1.65;0.85;;;;;;;16.16;99.60;97530.19;5030536;28;20497;-76
2021/06/15 06:04:12;;;;;;;0.25;0.25;;;;;;;16.39;95.92;97515.59;5031946;28;20029;-76
2021/06/15 06:09:21;;;;;;;3.13;0.90;;;;;;;17.07;92.59;97543.91;5045296;28;20088;-76
2021/06/15 06:11:47;;;;;;;1.45;1.30;;;;;;;16.89;91.47;97537.41;5032100;28;20029;-77
2021/06/15 06:14:14;;;;;;;0.70;0.60;;;;;;;16.25;94.18;97530.25;5047387;28;20029;-76
2021/06/15 06:16:42;;;;;;;0.82;0.75;;;;;;;15.84;95.77;97543.69;5030725;28;20033;-75
2021/06/15 06:19:11;;;;;;;0.85;0.85;;;;;;;15.62;96.32;97544.63;5030520;28;20025;-76
2021/06/15 06:21:38;;;;;;;0.28;0.28;;;;;;;15.87;94.39;97551.53;5031159;28;20491;-76
2021/06/15 06:24:05;;;;;;;2.00;1.77;;;;;;;15.16;98.90;97535.81;5046971;28;20037;-76
2021/06/15 06:26:31;;;;;;;0.75;0.75;;;;;;;15.02;100.00;97530.66;5046825;28;20171;-76
2021/06/15 06:28:56;;;;;;;0.65;0.57;;;;;;;15.42;100.00;97536.38;5047314;28;20059;-76
2021/06/15 06:31:22;;;;;;;5.07;0.52;;;;;;;15.68;100.00;97522.53;5046986;28;20052;-76
2021/06/15 06:33:48;;;;;;;4.95;1.15;;;;;;;16.33;97.06;97529.63;5031173;28;20033;-76
2021/06/15 06:36:14;;;;;;;1.88;0.95;;;;;;;16.99;91.03;97520.22;5046492;28;20056;-76
2021/06/15 06:38:40;;;;;;;0.57;0.40;;;;;;;17.33;89.85;97520.78;5046423;28;20053;-75
2021/06/15 06:41:05;;;;;;;1.13;0.50;;;;;;;17.95;87.96;97530.50;5046731;28;20064;-75
2021/06/15 06:43:31;;;;;;;2.10;1.10;;;;;;;18.79;80.00;97514.38;5030077;28;20025;-75
2021/06/15 06:45:57;;;;;;;0.40;0.40;;;;;;;19.21;78.94;97520.22;5046735;28;20083;-75
2021/06/15 06:48:23;;;;;;;1.13;0.82;;;;;;;20.21;72.94;97531.06;5046226;28;20033;-76
2021/06/15 06:50:48;;;;;;;1.67;1.00;;;;;;;20.67;71.50;97533.56;5029863;28;21037;-75
2021/06/15 06:53:14;;;;;;;1.08;0.65;;;;;;;20.66;72.30;97529.13;5029888;28;20116;-76
2021/06/15 06:55:39;;;;;;;0.50;0.47;;;;;;;20.52;71.46;97526.94;5031518;28;20021;-75
2021/06/15 06:58:05;;;;;;;0.45;0.45;;;;;;;20.57;71.61;97524.63;5031352;28;20116;-75
2021/06/15 07:00:31;;;;;;;3.65;1.67;;;;;;;21.08;67.97;97530.13;5045659;28;20042;-75
2021/06/15 07:02:57;;;;;;;1.60;0.52;;;;;;;20.87;68.01;97507.00;5030063;28;20116;-76
2021/06/15 07:05:22;;;;;;;0.60;0.60;;;;;;;21.53;67.11;97526.28;5030999;28;20055;-76
2021/06/15 07:07:50;;;;;;;0.55;0.55;;;;;;;22.27;65.83;97539.97;5030232;28;20538;-76
2021/06/15 07:10:15;;;;;;;1.35;0.98;;;;;;;21.77;66.75;97541.88;5045878;28;20083;-77
2021/06/15 07:12:41;;;;;;;0.22;0.17;;;;;;;21.72;67.64;97530.63;5029975;28;20488;-76
2021/06/15 07:15:08;;;;;;;1.10;0.65;;;;;;;21.53;64.74;97531.75;5046141;28;20752;-75
2021/06/15 07:17:33;;;;;;;0.30;0.30;;;;;;;22.63;62.03;97530.47;5029146;28;20481;-75
2021/06/15 07:19:59;;;;;;;0.57;0.57;;;;;;;23.70;60.31;97520.06;5046121;28;20021;-75
2021/06/15 07:22:24;;;;;;;1.15;1.05;;;;;;;24.98;54.56;97535.81;5030514;28;20021;-76
2021/06/15 07:24:50;;;;;;;0.55;0.55;;;;;;;25.48;53.24;97520.56;5030607;28;20489;-75
2021/06/15 07:27:16;;;;;;;0.75;0.45;;;;;;;27.67;48.47;97536.25;5030874;28;20018;-75
2021/06/15 07:29:42;;;;;;;0.50;0.47;;;;;;;29.08;43.71;97539.09;5030776;28;20476;-75
2021/06/15 07:32:07;;;;;;;1.45;0.57;;;;;;;28.30;43.41;97532.34;5046010;28;20036;-75
2021/06/15 07:34:33;;;;;;;0.08;0.08;;;;;;;27.54;45.54;97516.06;5028907;28;20040;-76
2021/06/15 07:36:59;;;;;;;0.20;0.17;;;;;;;27.50;45.24;97531.28;5045900;28;20610;-75
2021/06/15 07:39:24;;;;;;;0.45;0.40;;;;;;;27.55;45.77;97515.91;5029855;28;20049;-75
2021/06/15 07:41:50;;;;;;;0.30;0.30;;;;;;;26.97;46.98;97503.41;5029033;28;20029;-76
2021/06/15 07:44:15;;;;;;;0.60;0.40;;;;;;;27.29;45.83;97500.03;5029103;28;20091;-75
2021/06/15 07:46:43;;;;;;;0.15;0.15;;;;;;;26.70;43.12;97510.50;5030420;28;20033;-75
2021/06/15 07:49:09;;;;;;;0.63;0.28;;;;;;;26.62;45.14;97515.28;5045930;28;20075;-75
2021/06/15 07:51:36;;;;;;;0.55;0.55;;;;;;;27.60;43.75;97507.03;5030447;28;20021;-76
2021/06/15 07:54:01;;;;;;;0.63;0.60;;;;;;;28.51;41.35;97501.94;5045537;28;20033;-76
2021/06/15 07:56:27;;;;;;;0.52;0.52;;;;;;;28.53;42.02;97502.56;5028951;28;20030;-75
2021/06/15 07:58:53;;;;;;;10.13;1.52;;;;;;;28.69;43.75;97508.75;5029179;28;20094;-76
2021/06/15 08:01:18;;;;;;;0.25;0.25;;;;;;;29.68;36.31;97491.13;5028807;28;20140;-76
2021/06/15 08:03:44;;;;;;;0.30;0.30;;;;;;;29.69;36.23;97491.94;5029037;28;20041;-76
2021/06/15 08:06:10;;;;;;;0.15;0.15;;;;;;;30.57;35.13;97493.97;5028882;28;20036;-76
2021/06/15 08:08:35;;;;;;;0.20;0.20;;;;;;;31.73;33.71;97500.66;5045685;28;20052;-76
2021/06/15 08:11:03;;;;;;;13.13;2.28;;;;;;;31.05;34.85;97506.16;5030133;28;20041;-75
2021/06/15 08:13:28;;;;;;;1.55;0.70;;;;;;;31.08;35.93;97510.38;5030394;28;20025;-76
2021/06/15 08:15:54;;;;;;;0.32;0.30;;;;;;;31.42;35.98;97509.88;5030390;28;20048;-75
2021/06/15 08:18:20;;;;;;;0.45;0.45;;;;;;;32.21;33.72;97490.50;5030427;28;20076;-76
2021/06/15 08:20:48;;;;;;;0.00;0.00;;;;;;;32.40;31.00;97477.47;5028873;28;20044;-76
2021/06/15 08:23:14;;;;;;;0.30;0.30;;;;;;;31.95;31.30;97479.75;5028697;28;20029;-76
2021/06/15 08:25:40;;;;;;;1.05;0.52;;;;;;;30.79;33.75;97500.81;5045929;28;20025;-76
2021/06/15 08:28:06;;;;;;;0.17;0.13;;;;;;;30.94;32.46;97464.56;5030769;28;20033;-76
2021/06/15 08:30:32;;;;;;;0.30;0.30;;;;;;;31.40;31.93;97476.06;5030225;28;20521;-76
2021/06/15 08:32:58;;;;;;;0.30;0.30;;;;;;;31.75;31.32;97472.75;5030357;28;20390;-76
2021/06/15 08:35:24;;;;;;;0.93;0.40;;;;;;;31.74;29.85;97460.84;5031911;28;20035;-76
2021/06/15 08:37:50;;;;;;;0.03;0.03;;;;;;;31.53;30.27;97467.66;5030710;28;20091;-76
2021/06/15 08:40:15;;;;;;;0.20;0.20;;;;;;;32.45;28.78;97460.16;5030243;28;20050;-76
2021/06/15 08:42:41;;;;;;;0.22;0.22;;;;;;;32.19;29.65;97473.28;5030891;28;20483;-76
2021/06/15 08:45:08;;;;;;;0.43;0.43;;;;;;;32.78;28.77;97467.97;5046802;28;20091;-76
2021/06/15 08:47:45;;;;;;;0.20;0.20;;;;;;;32.63;28.44;97472.06;5031673;28;20028;-76
2021/06/15 08:50:14;;;;;;;0.00;0.00;;;;;;;31.85;29.61;97456.44;5030244;28;20080;-77
2021/06/15 08:52:40;;;;;;;0.13;0.13;;;;;;;30.93;32.13;97462.88;5047168;28;20495;-76
2021/06/15 08:55:07;;;;;;;0.30;0.30;;;;;;;29.86;35.49;97471.16;5030268;28;20033;-76
2021/06/15 08:57:34;;;;;;;0.20;0.20;;;;;;;28.26;38.46;97478.78;5046967;28;20029;-76
2021/06/15 09:00:01;;;;;;;0.38;0.20;;;;;;;27.76;36.11;97463.56;5046669;28;20127;-76
2021/06/15 09:02:27;;;;;;;4.75;1.45;;;;;;;27.51;39.29;97480.75;5046786;28;20034;-76
2021/06/15 09:04:53;;;;;;;0.70;0.52;;;;;;;26.90;37.59;97434.69;5030477;28;20025;-75
2021/06/15 09:07:19;;;;;;;2.17;1.50;;;;;;;27.20;40.26;97450.94;5030195;28;20056;-75
2021/06/15 09:09:50;;;;;;;1.42;1.30;;;;;;;26.36;39.16;97433.59;5030187;28;20028;-76
2021/06/15 09:12:20;;;;;;;5.82;1.88;;;;;;;25.85;42.12;97438.25;5046756;28;20071;-75
2021/06/15 09:14:51;;;;;;;3.58;1.70;;;;;;;26.72;39.66;97434.31;5046436;28;20454;-75
2021/06/15 09:17:20;;;;;;;1.77;1.40;;;;;;;27.71;38.19;97435.84;5046509;28;20040;-76
2021/06/15 09:19:47;;;;;;;4.30;1.60;;;;;;;28.57;35.97;97444.31;5046528;28;20160;-75
2021/06/15 09:22:31;;;;;;;3.10;1.30;;;;;;;28.62;36.30;97430.75;5030906;28;20035;-76
2021/06/15 09:24:57;;;;;;;4.93;1.65;;;;;;;28.56;35.89;97417.84;5049009;28;20480;-76
2021/06/15 09:27:34;;;;;;;6.22;1.92;;;;;;;29.44;35.47;97433.94;5034879;28;20514;-77
2021/06/15 09:30:02;;;;;;;7.15;5.43;;;;;;;30.62;34.45;97428.69;5050633;28;20504;-76
2021/06/15 09:32:37;;;;;;;5.20;2.15;;;;;;;31.39;34.01;97434.81;5033746;28;20022;-77
2021/06/15 09:35:11;;;;;;;2.30;1.20;;;;;;;31.51;30.98;97428.31;5049908;28;20053;-76
2021/06/15 09:37:41;;;;;;;4.57;1.70;;;;;;;32.30;30.91;97437.56;5033596;28;20033;-76
2021/06/15 09:40:32;;;;;;;11.85;1.38;;;;;;;32.35;30.65;97419.16;5034475;28;20056;-77
2021/06/15 09:43:01;;;;;;;2.83;1.70;;;;;;;32.50;31.62;97432.56;5034896;28;20033;-76
2021/06/15 09:45:29;;;;;;;19.02;4.80;;;;;;;33.22;31.53;97429.47;5033320;28;20100;-78
2021/06/15 09:48:22;;;;;;;6.03;1.70;;;;;;;33.08;32.01;97429.97;5050148;28;20037;-77
2021/06/15 09:50:49;;;;;;;3.35;1.83;;;;;;;31.46;32.86;97403.25;5033607;28;20018;-77
2021/06/15 09:53:29;;;;;;;13.27;1.88;;;;;;;31.82;33.37;97429.22;5033246;28;20025;-77
2021/06/15 09:55:57;;;;;;;7.00;2.20;;;;;;;31.96;33.16;97417.75;5033602;28;20070;-76
2021/06/15 09:58:52;;;;;;;10.75;5.50;;;;;;;32.16;29.96;97406.44;5049964;28;20034;-77
2021/06/15 10:01:32;;;;;;;2.80;1.30;;;;;;;31.51;32.02;97411.72;5033152;28;20140;-76
2021/06/15 10:04:16;;;;;;;1.60;1.25;;;;;;;31.71;33.15;97416.19;5034428;28;20504;-77
2021/06/15 10:06:50;;;;;;;2.78;1.25;;;;;;;32.48;29.31;97374.66;5033023;28;20121;-77
2021/06/15 10:09:24;;;;;;;1.65;1.30;;;;;;;32.51;30.55;97379.72;5034158;28;20029;-77
2021/06/15 10:11:58;;;;;;;5.95;1.20;;;;;;;32.26;32.10;97401.19;5049863;28;20104;-76
2021/06/15 10:14:26;;;;;;;2.55;1.40;;;;;;;32.92;31.85;97398.22;5033044;28;20109;-77
2021/06/15 10:16:52;;;;;;;6.03;1.95;;;;;;;32.96;30.45;97393.91;5049717;28;20496;-77
2021/06/15 10:19:18;;;;;;;2.20;2.00;;;;;;;34.47;29.14;97393.59;5033049;28;20105;-77
2021/06/15 10:21:43;;;;;;;11.13;2.28;;;;;;;33.44;29.51;97395.59;5034291;28;20056;-76
2021/06/15 10:24:10;;;;;;;4.15;1.50;;;;;;;32.82;31.38;97391.59;5049603;28;20025;-77
2021/06/15 10:26:35;;;;;;;4.45;1.50;;;;;;;33.09;30.54;97370.66;5049402;28;20485;-76
2021/06/15 10:29:06;;;;;;;1.25;1.15;;;;;;;33.27;29.09;97367.75;5049615;28;20118;-77
2021/06/15 10:31:32;;;;;;;3.28;1.30;;;;;;;35.08;28.10;97352.94;5049221;28;20436;-77
2021/06/15 10:33:58;;;;;;;5.40;1.60;;;;;;;33.60;27.42;97344.91;5049415;28;20033;-77
2021/06/15 10:36:43;;;;;;;2.05;1.30;;;;;;;33.66;28.61;97366.97;5031367;28;20033;-76
2021/06/15 10:39:15;;;;;;;1.88;1.13;;;;;;;33.22;27.95;97368.47;5049262;28;20042;-77
2021/06/15 10:41:41;;;;;;;3.83;1.35;;;;;;;32.35;29.66;97371.22;5049177;28;20040;-76
2021/06/15 10:44:09;;;;;;;7.25;2.05;;;;;;;31.97;32.04;97364.09;5049174;28;20025;-77
2021/06/15 10:46:37;;;;;;;2.85;1.30;;;;;;;30.79;32.37;97357.16;5049171;28;20113;-76
2021/06/15 10:49:10;;;;;;;2.38;0.93;;;;;;;30.50;31.83;97377.16;5031643;28;20029;-76
2021/06/15 10:51:53;;;;;;;2.58;1.70;;;;;;;30.33;34.91;97374.06;5031577;28;20017;-77
2021/06/15 10:54:31;;;;;;;2.80;1.42;;;;;;;29.01;36.71;97373.78;5029892;28;20030;-76
2021/06/15 10:57:22;;;;;;;2.70;1.30;;;;;;;28.75;36.62;97367.47;5031701;28;20485;-77
2021/06/15 11:00:11;;;;;;;7.03;1.58;;;;;;;28.37;39.15;97381.00;5043097;28;20091;-76
2021/06/15 11:02:36;;;;;;;1.50;1.38;;;;;;;28.26;37.72;97345.84;5046323;28;20037;-76
2021/06/15 11:05:40;;;;;;;5.68;1.83;;;;;;;29.51;37.70;97361.16;5031672;28;20025;-76
2021/06/15 11:08:28;;;;;;;2.40;1.40;;;;;;;31.92;33.54;97352.88;5031420;28;20025;-77
2021/06/15 11:11:09;;;;;;;46.47;35.15;;;;;;;32.98;30.92;97325.19;5046492;28;20425;-76
2021/06/15 11:13:46;;;;;;;;;;;;;;;32.44;29.76;97333.81;5047380;28;20033;-76
2021/06/15 11:16:51;;;;;;;12.02;3.90;;;;;;;32.36;29.61;97323.94;5030861;28;19917;-77
2021/06/15 11:19:20;;;;;;;3.85;1.30;;;;;;;33.16;29.10;97321.47;4973055;28;20106;-77
2021/06/15 11:21:48;;;;;;;1.67;1.27;;;;;;;33.58;28.74;97325.72;5024241;28;20076;-77
2021/06/15 11:24:30;;;;;;;2.28;1.20;;;;;;;31.90;30.34;97309.94;5030873;28;20040;-77
2021/06/15 11:27:02;;;;;;;10.75;2.13;;;;;;;32.79;31.35;97322.78;5031153;28;20037;-77
2021/06/15 11:29:38;;;;;;;3.25;1.40;;;;;;;31.79;31.61;97296.88;5046481;28;20025;-77
2021/06/15 11:32:12;;;;;;;5.00;1.60;;;;;;;33.09;33.19;97337.38;5045454;28;20516;-77
2021/06/15 11:34:42;;;;;;;2.38;1.48;;;;;;;33.72;28.92;97310.47;5030676;28;20060;-77
2021/06/15 11:37:36;;;;;;;5.55;1.50;;;;;;;34.10;27.65;97295.13;5045933;28;20029;-77
2021/06/15 11:40:28;;;;;;;3.10;1.35;;;;;;;33.14;28.23;97293.13;5030312;28;20187;-77
2021/06/15 11:43:17;;;;;;;7.47;1.58;;;;;;;33.82;27.85;97286.78;5030805;28;20039;-77